Time;durP1;ratioP1;P1;durP2;ratioP2;P2;SDS_P1;SDS_P2;PMS_P1;PMS_P2;Temp;Humidity;BMP_temperature;BMP_pressure;BME280_temperature;BME280_humidity;BME280_pressure;Samples;Min_cycle;Max_cycle;Signal;HPM_P1;HPM_P2
2022/12/25 00:01:13;;;;;;;;;1.00;1.00;;;;;5.13;100.00;98593.94;4919690;28;102352;-78
2022/12/25 00:03:40;;;;;;;;;0.50;0.50;;;;;5.13;100.00;98595.78;4922216;28;102264;-78
2022/12/25 00:06:07;;;;;;;;;0.50;0.00;;;;;5.14;100.00;98597.44;4897815;28;110922;-78
2022/12/25 00:08:35;;;;;;;;;0.00;0.00;;;;;5.14;100.00;98587.56;4918248;28;102247;-79
2022/12/25 00:11:12;;;;;;;;;0.75;0.00;;;;;5.10;100.00;98596.09;4915800;28;102128;-78
2022/12/25 00:13:40;;;;;;;;;0.00;0.00;;;;;5.03;100.00;98600.47;4918887;28;102046;-78
2022/12/25 00:16:11;;;;;;;;;0.00;0.00;;;;;4.90;100.00;98604.47;4914938;28;108874;-77
2022/12/25 00:18:38;;;;;;;;;0.00;0.00;;;;;4.83;100.00;98602.59;4916469;28;102165;-77
2022/12/25 00:21:06;;;;;;;;;0.00;0.00;;;;;4.58;100.00;98574.94;4909159;28;102052;-77
2022/12/25 00:23:34;;;;;;;;;0.00;0.00;;;;;4.68;100.00;98617.66;4925113;28;102807;-77
2022/12/25 00:26:06;;;;;;;;;0.00;0.00;;;;;4.64;100.00;98616.31;4911931;28;104948;-77
2022/12/25 00:28:34;;;;;;;;;1.00;0.00;;;;;4.62;100.00;98623.66;4921041;28;102158;-77
2022/12/25 00:31:07;;;;;;;;;1.25;0.00;;;;;4.60;100.00;98626.47;4919619;28;102109;-78
2022/12/25 00:33:38;;;;;;;;;0.00;0.00;;;;;4.59;100.00;98629.34;4918545;28;102254;-75
2022/12/25 00:36:07;;;;;;;;;0.00;0.00;;;;;4.56;100.00;98643.03;4919410;28;103121;-77
2022/12/25 00:38:36;;;;;;;;;0.00;0.00;;;;;4.51;100.00;98643.50;4917981;28;102227;-77
2022/12/25 00:41:14;;;;;;;;;0.25;0.25;;;;;4.25;100.00;98613.31;4920577;28;101956;-77
2022/12/25 00:43:44;;;;;;;;;0.00;0.00;;;;;4.40;100.00;98649.19;4916035;28;102559;-75
2022/12/25 00:46:12;;;;;;;;;0.25;0.25;;;;;4.33;100.00;98651.63;4918312;28;108759;-76
2022/12/25 00:48:39;;;;;;;;;0.50;0.50;;;;;4.30;100.00;98654.66;4933729;28;102136;-78
2022/12/25 00:51:10;;;;;;;;;0.75;0.75;;;;;4.25;100.00;98665.00;4927660;28;103085;-78
2022/12/25 00:53:37;;;;;;;;;0.75;0.75;;;;;4.19;100.00;98664.81;4924407;28;102192;-77
2022/12/25 00:56:06;;;;;;;;;1.00;1.00;;;;;4.15;100.00;98663.41;4920606;28;103601;-77
2022/12/25 00:58:34;;;;;;;;;1.00;1.00;;;;;4.12;100.00;98680.66;4921532;28;102073;-77
2022/12/25 01:01:02;;;;;;;;;1.50;0.50;;;;;4.09;100.00;98667.59;4915618;28;102314;-76
2022/12/25 01:03:29;;;;;;;;;0.75;0.75;;;;;4.15;100.00;98683.00;4925433;28;102123;-77
2022/12/25 01:06:05;;;;;;;;;0.00;0.00;;;;;4.11;100.00;98672.75;4919056;28;103053;-76
2022/12/25 01:08:35;;;;;;;;;0.00;0.00;;;;;4.17;100.00;98689.03;4916297;28;102239;-77
2022/12/25 01:11:07;;;;;;;;;1.00;0.50;;;;;4.13;100.00;98676.97;4912137;28;103432;-77
2022/12/25 01:13:36;;;;;;;;;0.50;0.00;;;;;4.19;100.00;98695.06;4911241;28;110454;-76
2022/12/25 01:16:10;;;;;;;;;1.25;0.00;;;;;4.20;100.00;98688.72;4912700;28;104063;-77
2022/12/25 01:18:38;;;;;;;;;1.00;0.00;;;;;4.28;100.00;98690.59;4907026;28;102295;-78
2022/12/25 01:21:06;;;;;;;;;0.00;0.00;;;;;4.32;100.00;98705.34;4916796;28;102499;-75
2022/12/25 01:23:34;;;;;;;;;0.50;0.50;;;;;4.33;100.00;98705.16;4917329;28;103151;-76
2022/12/25 01:26:09;;;;;;;;;0.00;0.00;;;;;4.35;100.00;98705.88;4923396;28;103999;-76
2022/12/25 01:28:37;;;;;;;;;0.00;0.00;;;;;4.38;100.00;98700.19;4916100;28;102315;-78
2022/12/25 01:31:04;;;;;;;;;0.00;0.00;;;;;4.37;100.00;98695.81;4921140;28;102062;-75
2022/12/25 01:33:31;;;;;;;;;1.00;0.00;;;;;4.42;100.00;98708.72;4925427;28;102035;-75
2022/12/25 01:35:58;;;;;;;;;0.00;0.00;;;;;4.44;100.00;98694.19;4904850;28;103969;-75
2022/12/25 01:38:25;;;;;;;;;0.00;0.00;;;;;4.46;100.00;98697.53;4920612;28;102221;-76
2022/12/25 01:40:52;;;;;;;;;0.25;0.00;;;;;4.51;100.00;98705.09;4927703;28;102301;-75
2022/12/25 01:43:28;;;;;;;;;1.00;0.25;;;;;4.49;100.00;98704.44;4921346;28;102313;-75
2022/12/25 01:45:56;;;;;;;;;1.25;1.00;;;;;4.54;100.00;98711.97;4921539;28;103076;-76
2022/12/25 01:48:37;;;;;;;;;0.75;0.00;;;;;4.57;100.00;98722.38;4927089;28;102201;-76
2022/12/25 01:51:20;;;;;;;;;1.00;0.00;;;;;4.56;100.00;98718.00;4919618;28;102022;-76
2022/12/25 01:53:47;;;;;;;;;0.00;0.00;;;;;4.58;100.00;98724.03;4928642;28;102398;-76
2022/12/25 01:56:14;;;;;;;;;0.75;0.00;;;;;4.61;100.00;98734.44;4933274;28;104048;-72
2022/12/25 01:58:42;;;;;;;;;0.00;0.00;;;;;4.61;100.00;98743.31;4926579;28;102152;-76
2022/12/25 02:01:10;;;;;;;;;0.50;0.00;;;;;4.59;100.00;98741.81;4933366;28;102035;-76
2022/12/25 02:03:38;;;;;;;;;1.00;0.00;;;;;4.62;100.00;98746.81;4922888;28;102015;-76
2022/12/25 02:06:06;;;;;;;;;1.00;0.00;;;;;4.62;100.00;98746.81;4898947;28;104159;-75
2022/12/25 02:08:41;;;;;;;;;1.25;1.00;;;;;4.61;100.00;98748.66;4927674;28;102231;-76
2022/12/25 02:14:21;;;;;;;;;1.00;0.00;;;;;4.64;100.00;98742.16;4912889;28;102433;-76
2022/12/25 02:17:18;;;;;;;;;0.25;0.00;;;;;4.64;100.00;98734.94;4914103;28;103028;-76
2022/12/25 02:20:40;;;;;;;;;0.00;0.00;;;;;4.64;100.00;98737.63;4913825;28;102289;-76
2022/12/25 02:23:56;;;;;;;;;10.75;7.75;;;;;4.54;100.00;98736.09;4921597;28;102088;-75
2022/12/25 02:26:45;;;;;;;;;5.00;3.00;;;;;4.55;100.00;98741.25;4921319;28;102296;-76
2022/12/25 02:29:36;;;;;;;;;2.25;2.25;;;;;4.55;100.00;98737.75;4922289;28;108727;-76
2022/12/25 02:32:17;;;;;;;;;1.00;1.00;;;;;4.52;100.00;98740.75;4927433;28;102000;-75
2022/12/25 02:35:11;;;;;;;;;1.00;1.00;;;;;4.54;100.00;98747.63;4933825;28;102325;-76
2022/12/25 02:37:55;;;;;;;;;1.00;1.00;;;;;4.33;100.00;98721.22;4928617;28;102596;-76
2022/12/25 02:40:37;;;;;;;;;1.00;0.50;;;;;4.54;100.00;98754.81;4913335;28;108668;-76
2022/12/25 03:11:29;;;;;;;;;0.00;0.00;;;;;4.28;100.00;98739.59;4915333;28;102264;-75
2022/12/25 03:11:46;;;;;;;;;0.00;0.00;;;;;4.19;100.00;98745.09;4919309;28;102429;-77
2022/12/25 03:16:59;;;;;;;;;0.00;0.00;;;;;4.01;100.00;98724.53;4918940;28;102761;-76
2022/12/25 03:27:56;;;;;;;;;0.25;0.00;;;;;3.92;100.00;98746.03;4917752;28;102910;-76
2022/12/25 03:33:34;;;;;;;;;1.00;0.00;;;;;3.91;100.00;98763.09;4917678;28;104381;-75
2022/12/25 03:36:11;;;;;;;;;0.00;0.00;;;;;3.92;100.00;98754.06;4922309;28;108710;-77
2022/12/25 04:38:00;;;;;;;;;0.00;0.00;;;;;4.21;100.00;98812.66;4906942;28;104557;-76
2022/12/25 04:40:27;;;;;;;;;0.00;0.00;;;;;4.21;100.00;98807.31;4916064;28;102504;-76
2022/12/25 04:42:54;;;;;;;;;0.00;0.00;;;;;4.22;100.00;98815.19;4915987;28;104041;-76
2022/12/25 04:45:21;;;;;;;;;0.00;0.00;;;;;4.24;100.00;98807.81;4919889;28;102330;-76
2022/12/25 04:47:48;;;;;;;;;0.00;0.00;;;;;4.22;100.00;98812.50;4917288;28;102997;-76
2022/12/25 04:50:15;;;;;;;;;0.00;0.00;;;;;4.24;100.00;98810.50;4923380;28;104133;-72
2022/12/25 04:52:42;;;;;;;;;0.00;0.00;;;;;4.24;100.00;98810.50;4902088;28;108638;-76
2022/12/25 04:55:10;;;;;;;;;0.00;0.00;;;;;4.26;100.00;98816.53;4927806;28;102142;-76
2022/12/25 04:57:38;;;;;;;;;0.00;0.00;;;;;4.25;100.00;98822.88;4924016;28;101954;-76
2022/12/25 05:00:06;;;;;;;;;0.50;0.00;;;;;4.25;100.00;98825.56;4922677;28;104226;-76
2022/12/25 05:02:33;;;;;;;;;0.00;0.00;;;;;4.25;100.00;98816.69;4917696;28;104030;-77
2022/12/25 05:05:00;;;;;;;;;0.00;0.00;;;;;4.07;100.00;98781.94;4917615;28;102049;-76
2022/12/25 05:07:27;;;;;;;;;0.00;0.00;;;;;4.25;100.00;98808.66;4919857;28;102368;-76
2022/12/25 05:09:54;;;;;;;;;0.00;0.00;;;;;4.24;100.00;98810.50;4921899;28;102056;-76
2022/12/25 05:12:21;;;;;;;;;0.00;0.00;;;;;4.22;100.00;98807.16;4911575;28;104308;-77
2022/12/25 05:14:48;;;;;;;;;0.00;0.00;;;;;4.20;100.00;98817.16;4915683;28;102786;-77
2022/12/25 05:17:15;;;;;;;;;0.00;0.00;;;;;4.21;100.00;98821.53;4908140;28;103447;-75
2022/12/25 05:19:42;;;;;;;;;0.75;0.00;;;;;4.21;100.00;98818.84;4921896;28;103053;-78
2022/12/25 05:22:09;;;;;;;;;0.00;0.00;;;;;4.20;100.00;98822.50;4920662;28;103989;-75
2022/12/25 05:24:36;;;;;;;;;0.00;0.00;;;;;4.17;100.00;98828.19;4917561;28;102367;-75
2022/12/25 05:27:03;;;;;;;;;0.00;0.00;;;;;4.17;100.00;98816.63;4922490;28;102165;-77
2022/12/25 05:29:30;;;;;;;;;0.00;0.00;;;;;4.18;100.00;98829.88;4926880;28;102367;-76
2022/12/25 05:31:57;;;;;;;;;0.00;0.00;;;;;4.18;100.00;98827.19;4918630;28;103145;-77
2022/12/25 05:34:24;;;;;;;;;0.00;0.00;;;;;4.16;100.00;98821.16;4903499;28;102190;-77
2022/12/25 05:36:51;;;;;;;;;0.00;0.00;;;;;4.17;100.00;98825.50;4926038;28;103756;-75
2022/12/25 05:39:18;;;;;;;;;0.00;0.00;;;;;3.95;100.00;98799.25;4923165;28;102249;-75
2022/12/25 05:41:45;;;;;;;;;0.00;0.00;;;;;4.10;100.00;98835.13;4921720;28;104130;-75
2022/12/25 05:44:13;;;;;;;;;0.50;0.50;;;;;4.09;100.00;98846.84;4920509;28;102326;-76
2022/12/25 05:46:40;;;;;;;;;0.00;0.00;;;;;4.03;100.00;98853.66;4921072;28;102289;-76
2022/12/25 05:49:07;;;;;;;;;0.00;0.00;;;;;3.97;100.00;98848.06;4919599;28;102092;-76
2022/12/25 05:51:34;;;;;;;;;0.25;0.00;;;;;3.91;100.00;98854.03;4923875;28;104025;-76
2022/12/25 05:54:01;;;;;;;;;0.00;0.00;;;;;3.80;100.00;98844.41;4923913;28;102039;-76
2022/12/25 05:56:28;;;;;;;;;0.50;0.50;;;;;3.80;100.00;98851.59;4900683;28;102361;-75
2022/12/25 05:58:55;;;;;;;;;0.00;0.00;;;;;3.72;100.00;98849.69;4928364;28;102389;-75
2022/12/25 06:01:25;;;;;;;;;0.00;0.00;;;;;3.68;100.00;98859.00;4918179;28;104310;-75
2022/12/25 06:03:52;;;;;;;;;0.00;0.00;;;;;3.60;100.00;98850.91;4923993;28;102102;-75
2022/12/25 06:06:19;;;;;;;;;0.25;0.00;;;;;3.51;100.00;98843.78;4919213;28;102305;-75
2022/12/25 06:08:46;;;;;;;;;0.00;0.00;;;;;3.40;100.00;98849.31;4933259;28;105884;-76
2022/12/25 06:11:14;;;;;;;;;0.75;0.00;;;;;3.32;100.00;98865.28;4927427;28;108690;-76
2022/12/25 06:13:41;;;;;;;;;0.00;0.00;;;;;3.20;100.00;98861.13;4917938;28;102115;-76
2022/12/25 06:16:11;;;;;;;;;0.25;0.00;;;;;3.14;100.00;98883.91;4919228;28;102265;-76
2022/12/25 06:18:41;;;;;;;;;0.00;0.00;;;;;3.07;100.00;98882.81;4925263;28;102279;-75
2022/12/25 06:21:10;;;;;;;;;0.75;0.50;;;;;3.02;100.00;98882.41;4912079;28;104038;-75
2022/12/25 06:23:38;;;;;;;;;2.00;0.00;;;;;2.93;100.00;98877.94;4926958;28;102081;-75
2022/12/25 06:26:11;;;;;;;;;0.00;0.00;;;;;2.89;100.00;98895.25;4929193;28;102397;-76
2022/12/25 06:28:39;;;;;;;;;0.00;0.00;;;;;2.82;100.00;98896.81;4923671;28;102320;-75
2022/12/25 06:31:14;;;;;;;;;0.00;0.00;;;;;2.78;100.00;98900.78;4917850;28;104292;-75
2022/12/25 06:33:42;;;;;;;;;0.00;0.00;;;;;2.74;100.00;98899.38;4922154;28;102238;-75
2022/12/25 06:36:21;;;;;;;;;0.00;0.00;;;;;2.73;100.00;98897.69;4916800;28;102401;-75
2022/12/25 06:38:48;;;;;;;;;0.75;0.00;;;;;2.70;100.00;98910.34;4919961;28;103590;-75
2022/12/25 06:41:20;;;;;;;;;1.00;0.00;;;;;2.70;100.00;98918.34;4919346;28;104043;-75
2022/12/25 06:43:55;;;;;;;;;1.00;1.00;;;;;2.70;100.00;98925.53;4912202;28;102690;-74
2022/12/25 06:46:25;;;;;;;;;1.00;1.00;;;;;2.68;100.00;98923.00;4912171;28;103635;-75
2022/12/25 06:48:52;;;;;;;;;1.25;1.25;;;;;2.65;100.00;98915.28;4927162;28;102446;-75
2022/12/25 06:51:24;;;;;;;;;2.75;2.75;;;;;2.59;100.00;98913.19;4912328;28;103458;-74
2022/12/25 06:53:53;;;;;;;;;4.00;2.00;;;;;2.60;100.00;98920.22;4916946;28;103526;-77
2022/12/25 06:56:22;;;;;;;;;2.75;2.00;;;;;2.60;100.00;98936.22;4917798;28;103498;-77
2022/12/25 06:58:53;;;;;;;;;6.50;5.00;;;;;2.60;100.00;98940.72;4917360;28;102228;-74
2022/12/25 07:01:23;;;;;;;;;3.50;3.00;;;;;2.59;100.00;98939.88;4916868;28;104063;-74
2022/12/25 07:03:53;;;;;;;;;5.00;1.50;;;;;2.58;100.00;98959.53;4919627;28;102313;-77
2022/12/25 07:06:20;;;;;;;;;7.00;2.25;;;;;2.58;100.00;98953.34;4910208;28;103817;-76
2022/12/25 07:08:47;;;;;;;;;1.00;1.00;;;;;2.55;100.00;98951.81;4916598;28;102233;-75
2022/12/25 07:11:15;;;;;;;;;0.00;0.00;;;;;2.55;100.00;98967.84;4914352;28;104159;-75
2022/12/25 07:13:42;;;;;;;;;0.50;0.50;;;;;2.52;100.00;98965.44;4914164;28;103463;-75
2022/12/25 07:16:10;;;;;;;;;0.00;0.00;;;;;2.53;100.00;98975.13;4913438;28;101912;-75
2022/12/25 07:18:38;;;;;;;;;0.75;0.25;;;;;2.54;100.00;98992.84;4917102;28;102596;-75
2022/12/25 07:21:11;;;;;;;;;0.00;0.00;;;;;2.54;100.00;99000.84;4914289;28;104028;-76
2022/12/25 07:23:39;;;;;;;;;1.00;1.00;;;;;2.57;100.00;99013.03;4911201;28;102271;-75
2022/12/25 07:26:06;;;;;;;;;1.00;0.25;;;;;2.56;100.00;99014.91;4911005;28;102159;-76
2022/12/25 07:28:33;;;;;;;;;0.00;0.00;;;;;2.56;100.00;99017.56;4916524;28;103722;-76
2022/12/25 07:31:12;;;;;;;;;0.00;0.00;;;;;2.58;100.00;99012.91;4908968;28;104033;-75
2022/12/25 07:33:40;;;;;;;;;1.75;1.00;;;;;2.59;100.00;99014.59;4918432;28;102040;-76
2022/12/25 07:36:07;;;;;;;;;1.00;0.00;;;;;2.60;100.00;99008.28;4913501;28;102263;-76
2022/12/25 07:38:39;;;;;;;;;0.00;0.00;;;;;2.64;100.00;99017.69;4911658;28;102087;-76
2022/12/25 07:41:11;;;;;;;;;0.00;0.00;;;;;2.65;100.00;99016.72;4911753;28;103615;-76
2022/12/25 07:43:39;;;;;;;;;1.00;0.00;;;;;2.67;100.00;99016.56;4913260;28;103469;-76
2022/12/25 07:46:06;;;;;;;;;0.00;0.00;;;;;2.68;100.00;99019.09;4916126;28;102277;-76
2022/12/25 07:48:34;;;;;;;;;0.75;0.00;;;;;2.70;100.00;99019.78;4921862;28;102759;-76
2022/12/25 07:51:06;;;;;;;;;1.00;0.00;;;;;2.70;100.00;99011.78;4923407;28;105125;-75
2022/12/25 07:53:34;;;;;;;;;0.00;0.00;;;;;2.75;100.00;99007.88;4901808;28;102152;-75
2022/12/25 07:56:04;;;;;;;;;0.50;0.00;;;;;2.74;100.00;98996.34;4921286;28;107097;-76
2022/12/25 07:58:31;;;;;;;;;1.00;0.00;;;;;2.84;100.00;99009.66;4924172;28;102343;-75
2022/12/25 08:01:08;;;;;;;;;0.25;0.00;;;;;2.65;100.00;98975.84;4920613;28;104319;-76
2022/12/25 08:03:36;;;;;;;;;0.00;0.00;;;;;2.93;100.00;98998.97;4916710;28;102444;-76
2022/12/25 08:06:08;;;;;;;;;0.00;0.00;;;;;2.97;100.00;99004.88;4923538;28;102141;-76
2022/12/25 08:08:36;;;;;;;;;0.00;0.00;;;;;2.96;100.00;98997.84;4918491;28;102302;-75
2022/12/25 08:11:06;;;;;;;;;1.00;0.00;;;;;2.97;100.00;98999.53;4916524;28;103989;-75
2022/12/25 08:13:33;;;;;;;;;1.25;1.00;;;;;3.02;100.00;99010.63;4913516;28;102076;-75
2022/12/25 08:16:07;;;;;;;;;1.00;1.00;;;;;3.04;100.00;98997.97;4919200;28;103548;-75
2022/12/25 08:18:36;;;;;;;;;0.00;0.00;;;;;3.09;100.00;99009.06;4920690;28;101948;-77
2022/12/25 08:21:09;;;;;;;;;0.50;0.00;;;;;3.12;100.00;99003.44;4924464;28;103996;-77
2022/12/25 08:23:39;;;;;;;;;1.00;0.25;;;;;3.14;100.00;99012.16;4902934;28;102395;-78
2022/12/25 08:26:09;;;;;;;;;0.50;0.50;;;;;3.14;100.00;99009.50;4920389;28;102319;-76
2022/12/25 08:28:36;;;;;;;;;6.00;1.75;;;;;3.20;100.00;99014.22;4921174;28;102051;-76
2022/12/25 08:31:09;;;;;;;;;1.00;1.00;;;;;3.24;100.00;99010.31;4918924;28;104189;-75
2022/12/25 08:33:37;;;;;;;;;1.00;1.00;;;;;3.29;100.00;98994.66;4914628;28;102251;-76
2022/12/25 08:36:06;;;;;;;;;0.00;0.00;;;;;3.35;100.00;98994.09;4914996;28;102342;-75
2022/12/25 08:38:34;;;;;;;;;0.00;0.00;;;;;3.44;100.00;98989.69;4919002;28;102936;-76
2022/12/25 08:41:01;;;;;;;;;0.25;0.25;;;;;3.40;100.00;98966.91;4913591;28;104025;-77
2022/12/25 08:43:28;;;;;;;;;1.00;0.00;;;;;3.54;100.00;98975.31;4915723;28;102168;-75
2022/12/25 08:45:55;;;;;;;;;0.25;0.00;;;;;3.62;100.00;98984.41;4915161;28;102359;-75
2022/12/25 08:48:22;;;;;;;;;1.00;0.25;;;;;3.66;100.00;98989.31;4912510;28;102917;-75
2022/12/25 08:50:51;;;;;;;;;0.25;0.00;;;;;3.71;100.00;98996.91;4912788;28;104340;-74
2022/12/25 08:53:18;;;;;;;;;0.50;0.00;;;;;3.74;100.00;99007.31;4912974;28;102362;-74
2022/12/25 08:55:46;;;;;;;;;0.00;0.00;;;;;3.77;100.00;99012.34;4920219;28;102117;-75
2022/12/25 08:58:15;;;;;;;;;0.00;0.00;;;;;3.78;100.00;99020.22;4920060;28;102827;-75
2022/12/25 09:00:42;;;;;;;;;1.00;1.00;;;;;3.80;100.00;99022.75;4917531;28;111180;-75
2022/12/25 09:03:09;;;;;;;;;1.75;1.00;;;;;3.89;100.00;99028.06;4917822;28;102159;-75
2022/12/25 09:05:36;;;;;;;;;1.25;1.25;;;;;3.98;100.00;99031.66;4900463;28;102327;-76
2022/12/25 09:08:04;;;;;;;;;0.00;0.00;;;;;4.07;100.00;99041.47;4913479;28;103261;-75
2022/12/25 09:10:36;;;;;;;;;0.75;0.75;;;;;4.17;100.00;99036.06;4916331;28;103169;-75
2022/12/25 09:13:05;;;;;;;;;0.00;0.00;;;;;4.29;100.00;99037.53;4920129;28;102604;-76
2022/12/25 09:15:34;;;;;;;;;0.00;0.00;;;;;4.41;100.00;99041.72;4934079;28;102371;-76
2022/12/25 09:18:04;;;;;;;;;0.25;0.25;;;;;4.51;100.00;99031.75;4922155;28;102134;-75
2022/12/25 09:20:32;;;;;;;;;1.00;1.00;;;;;4.65;100.00;99041.09;4924388;28;103064;-76
2022/12/25 09:23:01;;;;;;;;;0.00;0.00;;;;;4.62;100.00;99011.94;4914727;28;102278;-76
2022/12/25 09:25:28;;;;;;;;;0.75;0.75;;;;;4.85;100.00;99038.13;4911951;28;102756;-76
2022/12/25 09:27:55;;;;;;;;;1.00;1.00;;;;;4.98;100.00;99037.72;4901077;28;103454;-75
2022/12/25 09:30:22;;;;;;;;;1.00;1.00;;;;;5.09;100.00;99056.22;4916408;28;104172;-75
2022/12/25 09:32:49;;;;;;;;;0.00;0.00;;;;;5.17;100.00;99042.91;4919067;28;102297;-75
2022/12/25 09:35:17;;;;;;;;;0.00;0.00;;;;;5.24;100.00;99043.09;4921027;28;102536;-75
2022/12/25 09:37:45;;;;;;;;;0.00;0.00;;;;;5.31;100.00;99026.22;4924374;28;102146;-75
2022/12/25 09:40:20;;;;;;;;;0.00;0.00;;;;;5.43;100.00;99034.00;4906673;28;107835;-75
2022/12/25 09:42:48;;;;;;;;;0.50;0.50;;;;;5.48;100.00;99037.06;4907256;28;104533;-71
2022/12/25 09:45:36;;;;;;;;;1.50;1.00;;;;;5.59;99.28;99043.00;4913872;28;102253;-75
2022/12/25 09:48:04;;;;;;;;;1.00;0.00;;;;;5.64;99.22;99050.56;4914438;28;102240;-75
2022/12/25 09:50:42;;;;;;;;;1.00;0.00;;;;;5.73;98.40;99054.97;4909164;28;104179;-75
2022/12/25 09:53:13;;;;;;;;;1.00;0.00;;;;;5.83;98.49;99053.03;4909728;28;104058;-74
2022/12/25 09:56:05;;;;;;;;;0.25;0.00;;;;;5.92;98.46;99054.78;4924176;28;102359;-74
2022/12/25 09:58:33;;;;;;;;;1.00;0.00;;;;;5.99;98.91;99053.13;4924357;28;102111;-74
2022/12/25 10:01:23;;;;;;;;;0.00;0.00;;;;;6.06;98.05;99047.97;4922728;28;104189;-75
2022/12/25 10:04:18;;;;;;;;;0.00;0.00;;;;;6.20;97.93;99041.97;4916138;28;102578;-76
2022/12/25 10:07:30;;;;;;;;;2.00;0.00;;;;;6.28;97.84;99040.16;4927350;28;102018;-75
2022/12/25 10:10:05;;;;;;;;;0.00;0.00;;;;;6.39;97.59;99047.09;4907061;28;102083;-75
2022/12/25 10:12:51;;;;;;;;;0.00;0.00;;;;;6.43;95.51;99043.06;4922395;28;104314;-76
2022/12/25 10:15:32;;;;;;;;;0.00;0.00;;;;;6.52;94.62;99030.50;4918321;28;105091;-74
2022/12/25 10:18:18;;;;;;;;;0.00;0.00;;;;;6.59;94.85;99037.72;4927403;28;102339;-76
2022/12/25 10:20:55;;;;;;;;;1.50;0.25;;;;;6.64;92.44;99031.84;4924063;28;102190;-75
2022/12/25 10:23:34;;;;;;;;;0.00;0.00;;;;;6.72;93.22;99031.84;4913801;28;111241;-76
2022/12/25 10:26:03;;;;;;;;;1.50;0.75;;;;;6.79;93.17;99035.56;4917731;28;102082;-76
2022/12/25 10:28:44;;;;;;;;;0.50;0.25;;;;;6.85;92.48;99018.75;4897702;28;102163;-76
2022/12/25 10:31:34;;;;;;;;;0.25;0.00;;;;;6.91;91.50;99018.09;4916415;28;101994;-76
2022/12/25 10:34:02;;;;;;;;;0.50;0.50;;;;;6.97;91.76;99024.66;4921672;28;108740;-75
2022/12/25 10:36:29;;;;;;;;;0.00;0.00;;;;;7.05;91.67;99032.72;4923197;28;102327;-75
2022/12/25 10:38:57;;;;;;;;;0.00;0.00;;;;;7.11;92.89;99032.06;4916372;28;101939;-75
2022/12/25 10:41:58;;;;;;;;;0.50;0.50;;;;;7.16;92.13;99014.38;4925890;28;102027;-76
2022/12/25 10:44:25;;;;;;;;;1.00;1.00;;;;;7.24;91.71;99020.78;4909672;28;108861;-76
2022/12/25 10:46:58;;;;;;;;;1.00;0.00;;;;;7.28;90.16;99008.69;4923453;28;101964;-76
2022/12/25 10:49:37;;;;;;;;;0.75;0.00;;;;;7.31;88.45;99008.31;4913838;28;102140;-75
2022/12/25 10:52:23;;;;;;;;;1.00;0.00;;;;;7.36;88.91;99001.44;4916580;28;102036;-76
2022/12/25 10:54:50;;;;;;;;;0.50;0.00;;;;;7.45;89.65;99007.63;4911625;28;109427;-75
2022/12/25 10:57:21;;;;;;;;;0.75;0.00;;;;;7.48;87.69;99008.13;4921348;28;105310;-76
2022/12/25 10:59:50;;;;;;;;;0.00;0.00;;;;;7.53;88.62;99002.22;4925033;28;102228;-76
2022/12/25 11:02:29;;;;;;;;;0.00;0.00;;;;;7.54;88.08;98995.84;4914622;28;102445;-74
2022/12/25 11:05:06;;;;;;;;;0.00;0.00;;;;;7.60;90.19;99001.38;4909745;28;104068;-75
2022/12/25 11:07:45;;;;;;;;;0.00;0.00;;;;;7.61;86.23;98986.06;4922435;28;101957;-75
2022/12/25 11:10:41;;;;;;;;;1.00;0.25;;;;;7.56;84.55;98989.25;4919031;28;106141;-76
2022/12/25 11:13:20;;;;;;;;;0.00;0.00;;;;;7.64;85.95;98985.72;4915381;28;102237;-74
2022/12/25 11:15:48;;;;;;;;;1.00;1.00;;;;;7.66;85.23;98972.94;4919916;28;108181;-75
2022/12/25 11:18:20;;;;;;;;;0.50;0.00;;;;;7.74;88.62;98981.00;4918981;28;102644;-76
2022/12/25 11:20:53;;;;;;;;;0.00;0.00;;;;;7.79;86.52;98973.22;4919881;28;102488;-75
2022/12/25 11:23:22;;;;;;;;;1.00;0.00;;;;;7.81;86.40;98971.19;4917328;28;102153;-73
2022/12/25 11:26:04;;;;;;;;;0.00;0.00;;;;;7.85;88.11;98969.81;4916404;28;104230;-76
2022/12/25 11:28:34;;;;;;;;;0.00;0.00;;;;;7.90;87.15;98972.84;4914969;28;102386;-75
2022/12/25 11:31:26;;;;;;;;;0.00;0.00;;;;;7.94;84.80;98981.41;4914233;28;102402;-77
2022/12/25 11:33:59;;;;;;;;;0.00;0.00;;;;;7.95;85.69;98978.53;4912171;28;101969;-79
2022/12/25 11:36:48;;;;;;;;;0.00;0.00;;;;;7.96;83.74;98980.22;4912677;28;104340;-79
2022/12/25 11:39:27;;;;;;;;;0.00;0.00;;;;;7.99;83.80;98979.88;4905648;28;102547;-75
2022/12/25 11:42:11;;;;;;;;;0.00;0.00;;;;;8.01;83.28;98983.22;4912805;28;102057;-75
2022/12/25 11:45:03;;;;;;;;;0.50;0.00;;;;;7.99;82.63;98979.88;4920220;28;102369;-81
2022/12/25 11:47:44;;;;;;;;;0.00;0.00;;;;;7.96;81.38;98980.22;4907928;28;108728;-76
2022/12/25 11:50:39;;;;;;;;;0.00;0.00;;;;;7.95;82.14;98981.25;4907156;28;102073;-75
2022/12/25 11:53:28;;;;;;;;;0.00;0.00;;;;;7.98;82.28;98980.03;4909554;28;102507;-75
2022/12/25 11:56:00;;;;;;;;;2.00;0.75;;;;;8.00;82.41;98970.78;4892816;28;102402;-76
2022/12/25 11:58:47;;;;;;;;;1.25;1.00;;;;;8.05;82.43;98967.56;4911661;28;103959;-76
2022/12/25 12:01:26;;;;;;;;;0.00;0.00;;;;;8.12;85.51;98965.00;4909359;28;101963;-76
2022/12/25 12:03:54;;;;;;;;;1.00;0.00;;;;;8.18;82.95;98969.69;4908884;28;102327;-76
2022/12/25 12:06:42;;;;;;;;;0.00;0.00;;;;;8.26;82.45;98975.00;4915451;28;102025;-75
2022/12/25 12:09:47;;;;;;;;;0.50;0.00;;;;;8.28;84.54;98964.91;4905494;28;104041;-76
2022/12/25 12:12:46;;;;;;;;;1.00;0.25;;;;;8.30;82.46;98965.59;4909110;28;102311;-76
2022/12/25 12:15:42;;;;;;;;;0.00;0.00;;;;;8.34;81.46;98967.75;4916302;28;102070;-76
2022/12/25 12:18:27;;;;;;;;;0.00;0.00;;;;;8.35;80.36;98968.59;4907781;28;102239;-76
2022/12/25 12:21:00;;;;;;;;;0.00;0.00;;;;;8.40;83.19;98980.53;4914091;28;109839;-76
2022/12/25 12:23:31;;;;;;;;;0.00;0.00;;;;;8.39;79.72;98972.59;4910939;28;102228;-76
2022/12/25 12:25:59;;;;;;;;;0.00;0.00;;;;;8.37;80.59;98956.63;4913753;28;102303;-76
2022/12/25 12:28:43;;;;;;;;;1.00;0.00;;;;;8.37;81.55;98963.88;4910799;28;102430;-76
2022/12/25 12:31:10;;;;;;;;;0.00;0.00;;;;;8.34;81.53;98956.13;4916650;28;104145;-74
2022/12/25 12:33:47;;;;;;;;;0.00;0.00;;;;;8.30;81.78;98949.44;4915754;28;102207;-76
2022/12/25 12:36:15;;;;;;;;;0.00;0.00;;;;;8.33;83.36;98951.78;4914965;28;102340;-76
2022/12/25 12:38:43;;;;;;;;;0.00;0.00;;;;;8.34;83.64;98956.97;4919119;28;102577;-77
2022/12/25 12:41:13;;;;;;;;;0.00;0.00;;;;;8.32;81.25;98953.63;4922230;28;104158;-75
2022/12/25 12:43:58;;;;;;;;;0.00;0.00;;;;;8.31;82.83;98951.94;4923769;28;104433;-75
2022/12/25 12:46:29;;;;;;;;;0.00;0.00;;;;;8.30;83.53;98954.81;4914783;28;102249;-75
2022/12/25 12:49:22;;;;;;;;;0.00;0.00;;;;;8.29;85.60;98958.47;4921092;28;101934;-76
2022/12/25 12:52:01;;;;;;;;;0.00;0.00;;;;;8.26;83.75;98958.84;4921418;28;108683;-75
2022/12/25 12:54:29;;;;;;;;;0.25;0.25;;;;;8.19;83.13;98953.34;4909552;28;102050;-75
2022/12/25 12:56:58;;;;;;;;;0.50;0.00;;;;;8.16;82.90;98948.28;4914044;28;102198;-75
2022/12/25 12:59:31;;;;;;;;;0.00;0.00;;;;;8.14;85.63;98955.72;4918288;28;102678;-74
2022/12/25 13:02:36;;;;;;;;;0.00;0.00;;;;;8.14;85.09;98960.28;4909456;28;104061;-75
2022/12/25 13:05:13;;;;;;;;;0.00;0.00;;;;;8.10;83.29;98953.56;4919496;28;102189;-76
2022/12/25 13:08:01;;;;;;;;;0.75;0.00;;;;;8.11;81.01;98966.00;4915987;28;103328;-76
2022/12/25 13:10:35;;;;;;;;;0.25;0.00;;;;;8.05;80.92;98957.63;4916078;28;102288;-77
2022/12/25 13:13:09;;;;;;;;;0.00;0.00;;;;;8.04;83.49;98960.50;4899878;28;104213;-75
2022/12/25 13:15:37;;;;;;;;;0.50;0.00;;;;;7.98;83.53;98958.50;4925398;28;102440;-74
2022/12/25 13:18:12;;;;;;;;;0.00;0.00;;;;;7.96;81.66;98961.38;4925976;28;102250;-75
2022/12/25 13:21:00;;;;;;;;;2.00;0.00;;;;;7.95;82.19;98965.09;4920841;28;102217;-76
2022/12/25 13:23:36;;;;;;;;;1.00;0.00;;;;;7.93;82.23;98969.78;4920074;28;108611;-75
2022/12/25 13:26:15;;;;;;;;;1.00;1.00;;;;;7.89;81.38;98968.47;4914398;28;102210;-76
2022/12/25 13:28:45;;;;;;;;;0.00;0.00;;;;;7.80;81.96;98961.44;4912651;28;102236;-76
2022/12/25 13:31:12;;;;;;;;;0.00;0.00;;;;;7.90;82.31;98977.38;4912825;28;102578;-76
2022/12/25 13:33:44;;;;;;;;;1.00;0.00;;;;;7.88;83.86;98976.72;4915457;28;104003;-77
2022/12/25 13:36:13;;;;;;;;;1.00;0.00;;;;;7.87;82.50;98964.28;4918344;28;102298;-77